Search for airport 
image banner adimage banner adimage banner ad
image banner ad

A26 - Adin

Located in Adin, United States

ICAO - A26, IATA -

Data provided by Airmate  

General information

Coordinates: N41°11'11" W120°57'16"
Elevation is 4234 feet MSL.
Magnetic variation is 17° East
View others Airports in California

Operational data

Special qualification required
Current time UTC:
Current local time:
Weather at : KAAT - Alturas Muni ( 46 km )
METAR: KAAT 141055Z AUTO 17010KT 10SM CLR 13/06 A3003 RMK AO2 SLP124 T01330061 $
View NOTAMs / SUP AIP / TFR affecting this airport [VIEW]
Communications frequencies: [VIEW]

Runways:

RWY identifierQFULength (ft)Width (ft)SurfaceLDA (ft)
09285040ASPH
27285040ASPH

Airport contact information

Address: Adin United States

Satellite view of A26